Lester B. Pearson International Airport
CYYZ : now visible

Airfield :











YOU CAN JOIN US ON...

 
LOGIN :

Register | Disclaimer

   EN    FR    IT 

 









Legend :    VFR   Marginal VFR   IFR   Intensive IFR   Very Intensive IFR
Visi :
Ceiling :
>= 8 km
>= 3000ft
5 to 8 km
1000 to 3000 ft
1500m to 5 km
500 to 1000 ft
800 to 1500m
200 to 500 ft
< 800m
< 200 ft
Symbols :   Thunderstorms  Fog  Heavy snow  Heavy precipitations  Wind > 20 kt






- Airport Elevation : 569 ft
- IATA code : YYZ


CYYZ - Lester B. Pearson International

CURRENT METAR :
  • 032000Z 27006KT 170V320 15SM SCT090 27/06 A3010 RMK CU3 SLP192 DENSITY ALT 1900FT

EXPIRED METARs :
  • 031900Z 14012KT 15SM FEW085 FEW250 25/08 A3010 RMK CU2CI1 CI TR SLP194 DENSITY ALT 1600FT
  • 030500Z 31010KT 15SM FEW170 SCT220 18/06 A3003 RMK AC1CI3 SLP169 DENSITY ALT 1000FT
  • 031800Z 16011KT 15SM FEW070 FEW230 24/09 A3011 RMK CU1CI1 SLP196 DENSITY ALT 1600FT

TAF TAF CYYZ
Valid from the 03 at 18:00 until the 05 at 00:00 UTC


031740Z 0318/0424 35008KT P6SM SKC
TEMPO 0318/0323 19005KT
FM040700 VRB03KT P6SM SCT060
FM041100 VRB03KT P6SM BKN300
BECMG 0414/0416 14010KT
FM041900 14010KT P6SM BKN070 BKN280 RMK NXT FCST BY 032100Z
CZYZ FIR / North America



MET'MAP, your aeronautical weather chart ! - Copyright ORBIFLY December 2007 - Disclaimer

ORBIFLY MET'MAP TEAM :

Programming & Development : Alexandra Zaïnal
Original concept : Baudouin d'Aumeries
Technical & hardware support : Manuel Goepfert
Assistance : Marc-Olivier Méhu




SOURCES & CREDITS :

   NOAA       Earth
Advisory